createdAt,value
2019-05-13T00:00:25.537Z,0.90
2019-05-13T00:02:55.273Z,1.00
2019-05-13T00:05:25.131Z,0.80
2019-05-13T00:07:54.737Z,0.93
2019-05-13T00:10:24.587Z,0.90
2019-05-13T00:12:54.252Z,1.07
2019-05-13T00:15:24.379Z,0.93
2019-05-13T00:17:54.471Z,1.02
2019-05-13T00:20:24.235Z,1.20
2019-05-13T00:23:23.523Z,1.10
2019-05-13T00:31:35.957Z,0.80
2019-05-13T00:34:05.770Z,1.20
2019-05-13T00:36:36.738Z,1.17
2019-05-13T00:39:08.818Z,1.02
2019-05-13T00:41:38.439Z,1.00
2019-05-13T00:44:08.114Z,1.22
2019-05-13T00:46:37.778Z,1.27
2019-05-13T00:49:07.849Z,1.20
2019-05-13T00:51:37.529Z,1.30
2019-05-13T00:54:07.119Z,1.20
2019-05-13T00:56:36.729Z,1.10
2019-05-13T00:59:06.418Z,1.27
2019-05-13T01:01:36.121Z,1.65
2019-05-13T01:04:05.785Z,1.25
2019-05-13T01:06:37.499Z,1.22
2019-05-13T01:09:08.223Z,1.47
2019-05-13T01:11:37.836Z,1.47
2019-05-13T01:14:07.445Z,1.75
2019-05-13T01:16:37.351Z,1.75
2019-05-13T01:19:07.213Z,1.35
2019-05-13T01:21:36.814Z,1.42
2019-05-13T01:24:06.506Z,1.42
2019-05-13T01:26:36.351Z,1.45
2019-05-13T01:29:06.191Z,1.40
2019-05-13T01:31:36.806Z,1.42
2019-05-13T01:34:06.651Z,1.47
2019-05-13T01:36:36.998Z,1.60
2019-05-13T01:39:07.428Z,1.25
2019-05-13T01:41:38.571Z,1.37
2019-05-13T01:44:08.256Z,1.77
2019-05-13T01:46:37.844Z,1.52
2019-05-13T01:49:07.452Z,1.60
2019-05-13T01:51:37.294Z,1.57
2019-05-13T01:54:06.916Z,1.75
2019-05-13T01:56:36.507Z,1.67
2019-05-13T01:59:06.119Z,1.50
2019-05-13T02:01:36.017Z,1.80
2019-05-13T02:04:06.291Z,1.70
2019-05-13T02:06:35.874Z,2.22
2019-05-13T02:09:07.668Z,2.08
2019-05-13T02:11:37.252Z,1.85
2019-05-13T02:14:06.853Z,1.55
2019-05-13T02:16:36.448Z,1.60
2019-05-13T02:19:07.260Z,1.80
2019-05-13T02:21:36.939Z,1.85
2019-05-13T02:24:07.103Z,2.02
2019-05-13T02:26:36.701Z,2.05
2019-05-13T02:29:06.313Z,1.92
2019-05-13T02:31:46.048Z,1.45
2019-05-13T02:34:07.321Z,1.47
2019-05-13T02:36:36.990Z,1.80
2019-05-13T02:39:08.304Z,2.00
2019-05-13T02:41:38.046Z,1.70
2019-05-13T02:44:07.642Z,1.87
2019-05-13T02:46:37.303Z,2.30
2019-05-13T02:49:07.159Z,1.70
2019-05-13T02:51:36.766Z,1.85
2019-05-13T02:54:06.438Z,1.90
2019-05-13T02:56:36.493Z,2.37
2019-05-13T02:59:06.158Z,2.40
2019-05-13T03:01:35.772Z,2.15
2019-05-13T03:04:05.504Z,2.15
2019-05-13T03:06:35.166Z,1.80
2019-05-13T03:09:07.207Z,1.90
2019-05-13T03:11:36.795Z,1.80
2019-05-13T03:14:06.718Z,1.92
2019-05-13T03:16:42.798Z,2.00
2019-05-13T03:19:13.518Z,1.70
2019-05-13T03:21:43.221Z,1.80
2019-05-13T03:24:13.530Z,1.65
2019-05-13T03:26:43.720Z,1.90
2019-05-13T03:29:13.443Z,1.70
2019-05-13T03:31:46.540Z,1.52
2019-05-13T03:34:16.293Z,1.62
2019-05-13T03:36:46.988Z,1.52
2019-05-13T03:39:16.975Z,1.60
2019-05-13T03:41:52.799Z,1.55
2019-05-13T03:44:24.616Z,1.60
2019-05-13T03:46:58.094Z,1.85
2019-05-13T03:49:32.809Z,1.67
2019-05-13T03:52:03.253Z,1.95
2019-05-13T03:54:34.210Z,1.82
2019-05-13T03:57:04.195Z,1.85
2019-05-13T03:59:34.273Z,2.10
2019-05-13T04:02:04.498Z,2.25
2019-05-13T04:04:35.082Z,2.27
2019-05-13T04:07:04.677Z,2.00
2019-05-13T04:09:36.651Z,2.15
2019-05-13T04:12:06.518Z,2.30
2019-05-13T04:14:36.174Z,2.17
2019-05-13T04:17:07.978Z,2.25
2019-05-13T04:19:37.632Z,2.00
2019-05-13T04:22:07.961Z,2.02
2019-05-13T04:24:38.318Z,2.25
2019-05-13T04:27:07.909Z,2.33
2019-05-13T04:29:37.651Z,2.10
2019-05-13T04:32:07.281Z,1.85
2019-05-13T04:34:37.240Z,2.15
2019-05-13T04:37:06.913Z,2.50
2019-05-13T04:39:47.616Z,2.65
2019-05-13T04:42:08.168Z,2.62
2019-05-13T04:44:37.754Z,2.60
2019-05-13T04:47:07.425Z,2.20
2019-05-13T04:49:38.295Z,2.25
2019-05-13T04:52:13.077Z,2.42
2019-05-13T04:54:43.606Z,2.50
2019-05-13T04:57:12.789Z,2.27
2019-05-13T04:59:44.553Z,2.58
2019-05-13T05:02:40.099Z,2.73
2019-05-13T05:05:15.644Z,2.27
2019-05-13T05:08:07.361Z,2.65
2019-05-13T05:11:04.109Z,2.40
2019-05-13T05:14:02.763Z,2.50
2019-05-13T05:16:52.377Z,2.77
2019-05-13T05:20:03.873Z,3.22
2019-05-13T05:23:03.145Z,3.42
2019-05-13T05:25:58.477Z,3.22
2019-05-13T05:29:11.462Z,3.30
2019-05-13T05:32:21.473Z,3.20
2019-05-13T05:35:38.565Z,3.15
2019-05-13T05:38:46.431Z,3.20
2019-05-13T05:41:21.358Z,3.27
2019-05-13T05:43:56.307Z,3.52
2019-05-13T05:46:32.409Z,3.00
2019-05-13T05:49:06.715Z,3.20
2019-05-13T05:51:41.890Z,3.67
2019-05-13T05:54:14.746Z,3.25
2019-05-13T05:56:47.649Z,3.83
2019-05-13T05:59:21.748Z,3.87
2019-05-13T06:01:55.818Z,2.50
2019-05-13T06:04:27.372Z,2.37
2019-05-13T06:06:58.462Z,1.70
2019-05-13T06:09:28.499Z,2.75
2019-05-13T06:11:58.610Z,1.65
2019-05-13T06:14:28.827Z,1.42
2019-05-13T06:16:58.817Z,1.50
2019-05-13T06:19:28.927Z,1.45
2019-05-13T06:22:01.904Z,1.67
2019-05-13T06:24:31.388Z,1.87
2019-05-13T06:27:01.995Z,1.60
2019-05-13T06:29:32.045Z,2.00
2019-05-13T06:32:18.230Z,1.98
2019-05-13T06:34:34.855Z,1.87
2019-05-13T06:37:04.524Z,1.90
2019-05-13T06:39:34.271Z,1.72
2019-05-13T06:42:04.006Z,2.20
2019-05-13T06:44:33.616Z,1.65
2019-05-13T06:47:03.252Z,1.55
2019-05-13T06:49:32.851Z,1.32
2019-05-13T06:52:02.479Z,3.25
2019-05-13T06:54:33.267Z,1.27
2019-05-13T06:57:04.913Z,1.57
2019-05-13T06:59:34.380Z,1.57
2019-05-13T07:02:05.199Z,1.47
2019-05-13T07:04:34.758Z,1.22
2019-05-13T07:07:14.093Z,1.50
2019-05-13T07:09:36.655Z,2.02
2019-05-13T07:12:06.311Z,2.02
2019-05-13T07:14:36.183Z,2.00
2019-05-13T07:17:05.773Z,1.50
2019-05-13T07:19:36.303Z,1.70
2019-05-13T07:22:05.918Z,1.75
2019-05-13T07:24:35.529Z,1.40
2019-05-13T07:27:05.126Z,2.20
2019-05-13T07:29:34.833Z,2.27
2019-05-13T07:32:04.524Z,2.10
2019-05-13T07:34:34.219Z,1.70
2019-05-13T07:37:04.393Z,2.30
2019-05-13T07:39:34.231Z,2.70
2019-05-13T07:42:05.795Z,2.10
2019-05-13T07:44:35.197Z,1.92
2019-05-13T07:47:04.857Z,2.00
2019-05-13T07:49:34.544Z,1.80
2019-05-13T07:52:04.227Z,2.00
2019-05-13T07:54:33.903Z,1.80
2019-05-13T07:57:03.569Z,1.75
2019-05-13T07:59:33.173Z,1.47
2019-05-13T08:02:02.851Z,1.40
2019-05-13T08:04:33.390Z,1.87
2019-05-13T08:07:03.479Z,1.52
2019-05-13T08:09:33.073Z,1.90
2019-05-13T08:12:09.887Z,1.60
2019-05-13T08:14:34.229Z,1.70
2019-05-13T08:17:03.826Z,1.67
2019-05-13T08:19:33.994Z,1.57
2019-05-13T08:22:03.610Z,1.90
2019-05-13T08:24:33.472Z,1.90
2019-05-13T08:27:03.866Z,1.52
2019-05-13T08:29:33.957Z,1.72
2019-05-13T08:32:05.274Z,2.87
2019-05-13T08:34:35.211Z,1.70
2019-05-13T08:37:04.791Z,1.65
2019-05-13T08:39:38.422Z,1.77
2019-05-13T08:42:15.152Z,1.70
2019-05-13T08:44:37.776Z,1.37
2019-05-13T08:47:07.411Z,2.00
2019-05-13T08:49:37.447Z,1.90
2019-05-13T08:52:07.197Z,1.47
2019-05-13T08:54:36.802Z,1.55
2019-05-13T08:57:06.491Z,1.27
2019-05-13T08:59:36.101Z,1.80
2019-05-13T09:02:05.803Z,1.40
2019-05-13T09:04:35.398Z,1.82
2019-05-13T09:07:05.422Z,1.37
2019-05-13T09:09:36.385Z,1.50
2019-05-13T09:12:06.369Z,1.50
2019-05-13T09:14:35.980Z,1.60
2019-05-13T09:17:05.657Z,1.60
2019-05-13T09:19:35.266Z,1.17
2019-05-13T09:22:04.901Z,1.17
2019-05-13T09:24:37.722Z,1.70
2019-05-13T09:27:05.911Z,1.40
2019-05-13T09:29:35.507Z,1.62
2019-05-13T09:32:05.172Z,1.42
2019-05-13T09:34:34.793Z,1.95
2019-05-13T09:37:04.454Z,1.55
2019-05-13T09:39:34.057Z,1.75
2019-05-13T09:42:04.016Z,1.70
2019-05-13T09:44:33.891Z,1.70
2019-05-13T09:47:03.491Z,1.85
2019-05-13T09:49:33.406Z,1.80
2019-05-13T09:52:03.007Z,1.80
2019-05-13T09:54:33.322Z,1.77
2019-05-13T09:57:03.020Z,1.60
2019-05-13T09:59:32.651Z,1.35
2019-05-13T10:02:03.308Z,1.10
2019-05-13T10:04:33.037Z,1.30
2019-05-13T10:07:02.875Z,1.20
2019-05-13T10:09:33.093Z,1.40
2019-05-13T10:12:03.574Z,1.67
2019-05-13T10:14:33.679Z,1.40
2019-05-13T10:17:06.430Z,1.42
2019-05-13T10:19:35.069Z,1.20
2019-05-13T10:22:04.854Z,1.42
2019-05-13T10:24:35.324Z,1.27
2019-05-13T10:27:05.171Z,1.15
2019-05-13T10:29:35.281Z,1.40
2019-05-13T10:32:04.961Z,1.27
2019-05-13T10:34:35.095Z,0.93
2019-05-13T10:37:05.626Z,0.93
2019-05-13T10:39:35.280Z,1.20
2019-05-13T10:42:05.032Z,1.52
2019-05-13T10:44:34.658Z,1.30
2019-05-13T10:47:04.297Z,1.10
2019-05-13T10:49:33.978Z,1.60
2019-05-13T10:52:03.582Z,1.27
2019-05-13T10:54:33.201Z,1.27
2019-05-13T10:57:03.860Z,1.32
2019-05-13T10:59:34.026Z,1.02
2019-05-13T11:02:03.642Z,0.90
2019-05-13T11:04:33.235Z,1.30
2019-05-13T11:07:03.353Z,0.98
2019-05-13T11:09:33.049Z,1.30
2019-05-13T11:12:03.645Z,1.12
2019-05-13T11:14:33.238Z,1.10
2019-05-13T11:17:02.906Z,1.37
2019-05-13T11:19:36.633Z,1.40
2019-05-13T11:22:04.109Z,1.02
2019-05-13T11:24:34.179Z,1.10
2019-05-13T11:27:06.625Z,1.42
2019-05-13T11:29:36.106Z,1.30
2019-05-13T11:32:05.987Z,1.42
2019-05-13T11:34:35.598Z,1.20
2019-05-13T11:37:05.229Z,1.62
2019-05-13T11:39:34.819Z,1.10
2019-05-13T11:42:04.549Z,1.17
2019-05-13T11:44:34.164Z,1.30
2019-05-13T11:47:03.770Z,1.35
2019-05-13T11:49:33.369Z,1.20
2019-05-13T11:52:03.294Z,1.30
2019-05-13T11:54:32.949Z,1.15
2019-05-13T11:57:06.224Z,1.15
2019-05-13T11:59:34.052Z,1.05
2019-05-13T12:02:04.840Z,1.27
2019-05-13T12:04:35.618Z,1.30
2019-05-13T12:07:05.248Z,1.25
2019-05-13T12:09:34.922Z,1.30
2019-05-13T12:12:04.581Z,1.22
2019-05-13T12:14:48.445Z,0.90
2019-05-13T12:17:06.095Z,0.98
2019-05-13T12:19:35.745Z,1.60
2019-05-13T12:22:05.372Z,1.60
2019-05-13T12:24:35.004Z,1.40
2019-05-13T12:27:04.715Z,1.32
2019-05-13T12:29:34.300Z,1.35
2019-05-13T12:32:03.961Z,1.62
2019-05-13T12:34:40.365Z,1.67
2019-05-13T12:37:04.930Z,1.42
2019-05-13T12:39:34.794Z,1.98
2019-05-13T12:42:04.511Z,1.10
2019-05-13T12:44:34.568Z,1.55
2019-05-13T12:47:04.205Z,1.20
2019-05-13T12:49:36.560Z,1.02
2019-05-13T12:52:05.449Z,1.22
2019-05-13T12:54:35.047Z,1.37
2019-05-13T12:57:11.243Z,1.40
2019-05-13T12:59:36.084Z,1.07
2019-05-13T13:02:05.940Z,1.50
2019-05-13T13:04:35.601Z,1.25
2019-05-13T13:07:05.549Z,1.00
2019-05-13T13:09:35.409Z,1.40
2019-05-13T13:12:05.088Z,1.35
2019-05-13T13:14:43.969Z,1.55
2019-05-13T13:17:06.205Z,1.20
2019-05-13T13:19:36.099Z,1.05
2019-05-13T13:22:07.897Z,1.40
2019-05-13T13:24:37.417Z,1.37
2019-05-13T13:27:14.788Z,1.52
2019-05-13T13:29:38.629Z,1.30
2019-05-13T13:32:08.220Z,1.45
2019-05-13T13:34:37.946Z,1.17
2019-05-13T13:37:07.981Z,1.00
2019-05-13T13:39:37.787Z,1.30
2019-05-13T13:42:07.404Z,1.27
2019-05-13T13:44:37.810Z,1.10
2019-05-13T13:47:07.488Z,1.50
2019-05-13T13:49:37.078Z,1.27
2019-05-13T13:52:06.682Z,1.52
2019-05-13T13:54:36.671Z,1.10
2019-05-13T13:57:06.282Z,1.27
2019-05-13T13:59:36.335Z,1.05
2019-05-13T14:02:06.118Z,1.07
2019-05-13T14:04:36.012Z,1.07
2019-05-13T14:07:22.523Z,1.22
2019-05-13T14:09:37.329Z,0.90
2019-05-13T14:12:07.030Z,1.22
2019-05-13T14:14:36.766Z,1.07
2019-05-13T14:17:06.641Z,1.35
2019-05-13T14:19:36.262Z,1.22
2019-05-13T14:22:05.946Z,1.00
2019-05-13T14:24:36.286Z,1.30
2019-05-13T14:27:06.360Z,1.40
2019-05-13T14:29:48.328Z,0.78
2019-05-13T14:32:07.323Z,0.95
2019-05-13T14:34:37.018Z,1.10
2019-05-13T14:37:06.953Z,1.17
2019-05-13T14:39:36.597Z,1.20
2019-05-13T14:42:06.190Z,1.27
2019-05-13T14:44:35.820Z,1.02
2019-05-13T14:47:05.442Z,1.17
2019-05-13T14:49:35.057Z,1.00
2019-05-13T14:52:05.505Z,1.20
2019-05-13T14:54:35.112Z,1.62
2019-05-13T14:57:05.023Z,1.20
2019-05-13T14:59:35.928Z,1.32
2019-05-13T15:02:05.737Z,1.20
2019-05-13T15:04:35.345Z,1.55
2019-05-13T15:07:05.039Z,1.40
2019-05-13T15:09:34.720Z,2.42
2019-05-13T15:12:04.451Z,1.40
2019-05-13T15:14:34.377Z,1.07
2019-05-13T15:17:07.270Z,1.10
2019-05-13T15:19:35.420Z,1.30
2019-05-13T15:22:05.185Z,1.02
2019-05-13T15:24:34.810Z,1.17
2019-05-13T15:27:04.557Z,1.22
2019-05-13T15:29:34.173Z,1.20
2019-05-13T15:32:03.756Z,1.02
2019-05-13T15:34:33.418Z,1.25
2019-05-13T15:37:03.301Z,1.22
2019-05-13T15:39:32.918Z,1.40
2019-05-13T15:42:02.557Z,1.27
2019-05-13T15:44:32.802Z,1.07
2019-05-13T15:47:18.210Z,1.30
2019-05-13T15:49:33.899Z,0.98
2019-05-13T15:52:03.868Z,1.15
2019-05-13T15:54:33.491Z,1.40
2019-05-13T15:57:03.115Z,1.50
2019-05-13T15:59:32.707Z,1.30
2019-05-13T16:02:02.633Z,1.27
2019-05-13T16:04:32.824Z,1.35
2019-05-13T16:07:02.511Z,1.12
2019-05-13T16:09:32.210Z,1.25
2019-05-13T16:12:01.924Z,1.20
2019-05-13T16:14:31.825Z,1.10
2019-05-13T16:17:01.489Z,1.10
2019-05-13T16:19:32.680Z,1.27
2019-05-13T16:22:02.520Z,1.30
2019-05-13T16:24:32.348Z,1.17
2019-05-13T16:27:02.729Z,1.00
2019-05-13T16:29:32.420Z,1.20
2019-05-13T16:32:02.324Z,1.12
2019-05-13T16:34:32.120Z,1.10
2019-05-13T16:37:02.668Z,1.22
2019-05-13T16:39:32.503Z,1.10
2019-05-13T16:42:02.094Z,1.00
2019-05-13T16:44:31.981Z,1.15
2019-05-13T16:47:02.250Z,1.22
2019-05-13T16:49:32.066Z,1.10
2019-05-13T16:52:02.515Z,1.00
2019-05-13T16:54:33.108Z,1.00
2019-05-13T16:57:02.807Z,1.05
2019-05-13T16:59:32.422Z,1.10
2019-05-13T17:02:02.120Z,1.20
2019-05-13T17:04:32.366Z,0.88
2019-05-13T17:07:02.042Z,1.22
2019-05-13T17:09:32.330Z,1.00
2019-05-13T17:12:02.208Z,1.00
2019-05-13T17:14:32.359Z,1.17
2019-05-13T17:17:02.345Z,0.90
2019-05-13T17:19:32.007Z,1.00
2019-05-13T17:22:02.530Z,1.00
2019-05-13T17:24:32.334Z,0.93
2019-05-13T17:27:02.729Z,1.07
2019-05-13T17:29:32.484Z,0.93
2019-05-13T17:32:02.611Z,1.27
2019-05-13T17:34:32.254Z,0.85
2019-05-13T17:37:02.885Z,0.90
2019-05-13T17:39:32.672Z,1.00
2019-05-13T17:42:02.374Z,1.12
2019-05-13T17:44:32.185Z,0.90
2019-05-13T17:47:02.180Z,0.90
2019-05-13T17:49:32.142Z,1.17
2019-05-13T17:52:02.459Z,1.10
2019-05-13T17:54:32.410Z,1.10
2019-05-13T17:57:02.157Z,0.80
2019-05-13T17:59:31.856Z,0.98
2019-05-13T18:02:02.695Z,1.02
2019-05-13T18:04:33.891Z,1.15
2019-05-13T18:07:03.585Z,0.93
2019-05-13T18:09:36.009Z,1.10
2019-05-13T18:12:06.659Z,0.70
2019-05-13T18:14:38.234Z,1.12
2019-05-13T18:17:07.865Z,1.00
2019-05-13T18:19:37.515Z,1.77
2019-05-13T18:22:07.133Z,1.17
2019-05-13T18:24:37.037Z,1.30
2019-05-13T18:27:06.633Z,1.10
2019-05-13T18:29:36.325Z,1.30
2019-05-13T18:32:06.413Z,0.98
2019-05-13T18:34:36.337Z,1.07
2019-05-13T18:37:06.115Z,0.80
2019-05-13T18:39:35.717Z,1.00
2019-05-13T18:42:05.402Z,0.80
2019-05-13T18:44:35.026Z,1.00
2019-05-13T18:47:04.720Z,0.82
2019-05-13T18:49:34.313Z,0.80
2019-05-13T18:52:03.923Z,1.12
2019-05-13T18:54:33.546Z,1.00
2019-05-13T18:57:03.141Z,0.85
2019-05-13T18:59:32.815Z,1.00
2019-05-13T19:02:02.424Z,0.90
2019-05-13T19:04:32.089Z,0.90
2019-05-13T19:07:02.450Z,1.02
2019-05-13T19:09:32.197Z,0.95
2019-05-13T19:12:01.801Z,0.70
2019-05-13T19:14:32.244Z,0.82
2019-05-13T19:17:02.086Z,0.95
2019-05-13T19:19:31.865Z,0.93
2019-05-13T19:22:02.130Z,0.70
2019-05-13T19:24:31.960Z,0.78
2019-05-13T19:27:02.001Z,1.07
2019-05-13T19:29:32.982Z,0.85
2019-05-13T19:32:02.583Z,0.90
2019-05-13T19:34:32.593Z,1.00
2019-05-13T19:37:02.679Z,0.68
2019-05-13T19:39:32.340Z,0.88
2019-05-13T19:42:01.938Z,0.90
2019-05-13T19:44:31.814Z,0.95
2019-05-13T19:47:02.119Z,1.30
2019-05-13T19:49:36.282Z,1.27
2019-05-13T19:52:03.100Z,0.90
2019-05-13T19:54:32.703Z,1.02
2019-05-13T19:57:02.318Z,1.70
2019-05-13T19:59:32.355Z,1.10
2019-05-13T20:02:02.026Z,1.10
2019-05-13T20:04:31.710Z,1.10
2019-05-13T20:07:01.592Z,0.90
2019-05-13T20:09:32.197Z,0.88
2019-05-13T20:12:02.240Z,1.02
2019-05-13T20:14:31.861Z,1.12
2019-05-13T20:17:01.776Z,1.25
2019-05-13T20:19:45.698Z,0.90
2019-05-13T20:22:02.877Z,1.25
2019-05-13T20:24:32.478Z,1.32
2019-05-13T20:27:02.094Z,1.52
2019-05-13T20:29:31.690Z,1.42
2019-05-13T20:32:01.551Z,1.35
2019-05-13T20:34:31.843Z,1.80
2019-05-13T20:37:02.261Z,1.30
2019-05-13T20:39:32.296Z,1.32
2019-05-13T20:42:01.959Z,1.57
2019-05-13T20:44:31.632Z,1.75
2019-05-13T20:47:01.900Z,1.45
2019-05-13T20:49:31.703Z,1.17
2019-05-13T20:52:01.333Z,1.50
2019-05-13T20:54:31.547Z,1.57
2019-05-13T20:57:02.025Z,1.40
2019-05-13T20:59:32.280Z,1.90
2019-05-13T21:02:02.612Z,2.02
2019-05-13T21:04:32.453Z,2.00
2019-05-13T21:07:02.355Z,2.00
2019-05-13T21:09:32.044Z,2.33
2019-05-13T21:12:02.206Z,2.10
2019-05-13T21:14:32.178Z,2.35
2019-05-13T21:17:02.214Z,2.25
2019-05-13T21:19:39.207Z,2.37
2019-05-13T21:22:03.153Z,2.15
2019-05-13T21:24:32.832Z,2.55
2019-05-13T21:27:02.525Z,2.80
2019-05-13T21:29:32.509Z,2.60
2019-05-13T21:32:02.074Z,2.70
2019-05-13T21:34:31.780Z,2.58
2019-05-13T21:37:02.359Z,2.25
2019-05-13T21:39:32.257Z,2.12
2019-05-13T21:42:02.451Z,2.08
2019-05-13T21:44:33.960Z,2.30
2019-05-13T21:47:03.569Z,2.37
2019-05-13T21:49:33.265Z,1.98
2019-05-13T21:52:03.867Z,1.98
2019-05-13T21:54:33.637Z,2.40
2019-05-13T21:57:03.263Z,2.50
2019-05-13T21:59:32.965Z,2.42
2019-05-13T22:02:03.168Z,2.20
2019-05-13T22:04:32.763Z,2.12
2019-05-13T22:07:02.485Z,2.27
2019-05-13T22:09:32.170Z,1.90
2019-05-13T22:12:02.192Z,2.22
2019-05-13T22:14:32.209Z,2.08
2019-05-13T22:17:02.072Z,1.90
2019-05-13T22:19:31.823Z,2.50
2019-05-13T22:22:02.344Z,1.87
2019-05-13T22:24:32.116Z,2.00
2019-05-13T22:27:02.120Z,2.30
2019-05-13T22:29:32.331Z,2.02
2019-05-13T22:32:02.267Z,2.17
2019-05-13T22:34:32.172Z,1.80
2019-05-13T22:37:02.599Z,1.65
2019-05-13T22:39:34.768Z,2.12
2019-05-13T22:42:03.674Z,2.25
2019-05-13T22:44:34.363Z,2.27
2019-05-13T22:47:03.945Z,1.95
2019-05-13T22:49:33.549Z,1.92
2019-05-13T22:52:03.188Z,1.92
2019-05-13T22:54:32.793Z,1.82
2019-05-13T22:57:02.402Z,1.70
2019-05-13T22:59:32.333Z,1.60
2019-05-13T23:02:01.974Z,1.80
2019-05-13T23:04:31.652Z,1.77
2019-05-13T23:07:01.463Z,2.00
2019-05-13T23:09:32.213Z,2.00
2019-05-13T23:12:01.973Z,1.80
2019-05-13T23:14:31.659Z,1.85
2019-05-13T23:17:02.253Z,1.47
2019-05-13T23:19:33.543Z,1.60
2019-05-13T23:22:03.157Z,1.35
2019-05-13T23:24:33.829Z,1.60
2019-05-13T23:27:03.512Z,1.50
2019-05-13T23:29:34.372Z,1.90
2019-05-13T23:32:04.011Z,1.92
2019-05-13T23:34:33.692Z,1.90
2019-05-13T23:37:03.385Z,1.87
2019-05-13T23:39:32.987Z,1.80
2019-05-13T23:42:02.601Z,1.57
2019-05-13T23:44:32.382Z,2.00
2019-05-13T23:47:03.298Z,1.60
2019-05-13T23:49:33.937Z,2.10
2019-05-13T23:52:05.704Z,1.60
2019-05-13T23:54:36.363Z,1.65
2019-05-13T23:57:07.190Z,1.27
2019-05-13T23:59:36.775Z,1.67
